sensor_id;sensor_type;location;lat;lon;timestamp;pressure;altitude;pressure_sealevel;temperature;humidity
47556;BME280;33291;46.222;26.460;2023-07-28T00:02:15;96268.78;;;12.32;77.72
47556;BME280;33291;46.222;26.460;2023-07-28T00:04:41;96265.38;;;12.32;77.28
47556;BME280;33291;46.222;26.460;2023-07-28T00:07:06;96274.34;;;12.37;77.45
47556;BME280;33291;46.222;26.460;2023-07-28T00:09:32;96275.34;;;12.36;77.21
47556;BME280;33291;46.222;26.460;2023-07-28T00:11:59;96276.69;;;12.40;76.51
47556;BME280;33291;46.222;26.460;2023-07-28T00:14:25;96272.13;;;12.42;76.02
47556;BME280;33291;46.222;26.460;2023-07-28T00:16:56;96275.22;;;12.46;75.74
47556;BME280;33291;46.222;26.460;2023-07-28T00:19:22;96268.63;;;12.34;75.79
47556;BME280;33291;46.222;26.460;2023-07-28T00:21:48;96262.06;;;12.21;76.30
47556;BME280;33291;46.222;26.460;2023-07-28T00:24:13;96263.31;;;12.17;75.73
47556;BME280;33291;46.222;26.460;2023-07-28T00:26:39;96274.63;;;12.26;76.25
47556;BME280;33291;46.222;26.460;2023-07-28T00:29:04;96281.66;;;12.25;76.63
47556;BME280;33291;46.222;26.460;2023-07-28T00:31:32;96272.19;;;12.24;76.71
47556;BME280;33291;46.222;26.460;2023-07-28T00:33:57;96274.13;;;12.22;76.51
47556;BME280;33291;46.222;26.460;2023-07-28T00:36:23;96288.97;;;12.22;76.06
47556;BME280;33291;46.222;26.460;2023-07-28T00:38:48;96284.22;;;12.17;75.18
47556;BME280;33291;46.222;26.460;2023-07-28T00:41:14;96278.34;;;12.15;73.18
47556;BME280;33291;46.222;26.460;2023-07-28T00:43:39;96278.19;;;12.17;74.15
47556;BME280;33291;46.222;26.460;2023-07-28T00:46:04;96277.22;;;12.18;73.39
47556;BME280;33291;46.222;26.460;2023-07-28T00:48:30;96270.19;;;12.18;73.25
47556;BME280;33291;46.222;26.460;2023-07-28T00:50:56;96282.44;;;12.18;74.24
47556;BME280;33291;46.222;26.460;2023-07-28T00:53:23;96265.63;;;12.20;74.51
47556;BME280;33291;46.222;26.460;2023-07-28T00:55:49;96283.25;;;12.18;74.96
47556;BME280;33291;46.222;26.460;2023-07-28T00:58:14;96282.53;;;12.08;74.85
47556;BME280;33291;46.222;26.460;2023-07-28T01:00:40;96276.66;;;12.06;74.40
47556;BME280;33291;46.222;26.460;2023-07-28T01:03:05;96258.88;;;11.91;75.58
47556;BME280;33291;46.222;26.460;2023-07-28T01:06:08;96285.50;;;12.13;75.48
47556;BME280;33291;46.222;26.460;2023-07-28T01:08:59;96293.69;;;12.18;75.35
47556;BME280;33291;46.222;26.460;2023-07-28T01:11:26;96290.78;;;12.21;73.92
47556;BME280;33291;46.222;26.460;2023-07-28T01:13:52;96293.38;;;12.21;73.34
47556;BME280;33291;46.222;26.460;2023-07-28T01:16:17;96293.38;;;12.21;73.63
47556;BME280;33291;46.222;26.460;2023-07-28T01:18:43;96278.34;;;12.15;73.04
47556;BME280;33291;46.222;26.460;2023-07-28T01:21:15;96286.50;;;12.20;72.96
47556;BME280;33291;46.222;26.460;2023-07-28T01:26:34;96286.16;;;12.15;72.33
47556;BME280;33291;46.222;26.460;2023-07-28T01:29:02;96292.88;;;12.18;72.89
47556;BME280;33291;46.222;26.460;2023-07-28T01:31:27;96279.00;;;12.17;73.85
47556;BME280;33291;46.222;26.460;2023-07-28T01:33:53;96287.66;;;12.18;74.69
47556;BME280;33291;46.222;26.460;2023-07-28T01:36:18;96283.56;;;12.15;74.86
47556;BME280;33291;46.222;26.460;2023-07-28T01:38:44;96290.19;;;12.09;74.54
47556;BME280;33291;46.222;26.460;2023-07-28T01:41:09;96303.78;;;12.13;74.08
47556;BME280;33291;46.222;26.460;2023-07-28T01:43:34;96302.78;;;12.14;73.45
47556;BME280;33291;46.222;26.460;2023-07-28T01:46:00;96277.91;;;12.02;72.70
47556;BME280;33291;46.222;26.460;2023-07-28T01:48:26;96309.56;;;12.25;71.75
47556;BME280;33291;46.222;26.460;2023-07-28T01:50:51;96291.84;;;12.37;69.77
47556;BME280;33291;46.222;26.460;2023-07-28T01:53:17;96287.66;;;12.52;69.08
47556;BME280;33291;46.222;26.460;2023-07-28T01:55:42;96308.00;;;12.67;68.48
47556;BME280;33291;46.222;26.460;2023-07-28T01:58:08;96302.94;;;12.73;68.94
47556;BME280;33291;46.222;26.460;2023-07-28T02:00:34;96297.94;;;12.80;68.11
47556;BME280;33291;46.222;26.460;2023-07-28T02:03:00;96299.22;;;12.84;67.93
47556;BME280;33291;46.222;26.460;2023-07-28T02:05:27;96288.28;;;12.80;68.50
47556;BME280;33291;46.222;26.460;2023-07-28T02:07:54;96300.88;;;12.85;68.63
47556;BME280;33291;46.222;26.460;2023-07-28T02:10:19;96307.75;;;12.86;68.77
47556;BME280;33291;46.222;26.460;2023-07-28T02:12:45;96307.44;;;12.89;68.82
47556;BME280;33291;46.222;26.460;2023-07-28T02:15:11;96309.06;;;12.90;69.20
47556;BME280;33291;46.222;26.460;2023-07-28T02:17:37;96310.22;;;12.88;69.14
47556;BME280;33291;46.222;26.460;2023-07-28T02:20:03;96317.22;;;12.87;68.95
47556;BME280;33291;46.222;26.460;2023-07-28T02:22:29;96321.31;;;12.90;69.08
47556;BME280;33291;46.222;26.460;2023-07-28T02:24:54;96321.16;;;12.91;69.39
47556;BME280;33291;46.222;26.460;2023-07-28T02:27:20;96322.97;;;12.91;70.05
47556;BME280;33291;46.222;26.460;2023-07-28T02:29:45;96310.00;;;12.81;70.66
47556;BME280;33291;46.222;26.460;2023-07-28T02:32:11;96334.69;;;12.87;70.74
47556;BME280;33291;46.222;26.460;2023-07-28T02:34:36;96320.44;;;12.73;71.78
47556;BME280;33291;46.222;26.460;2023-07-28T02:37:02;96339.91;;;12.78;71.70
47556;BME280;33291;46.222;26.460;2023-07-28T02:39:27;96344.97;;;12.80;71.40
47556;BME280;33291;46.222;26.460;2023-07-28T02:41:54;96347.22;;;12.75;71.42
47556;BME280;33291;46.222;26.460;2023-07-28T02:44:19;96346.56;;;12.73;71.39
47556;BME280;33291;46.222;26.460;2023-07-28T02:46:44;96347.84;;;12.69;71.60
47556;BME280;33291;46.222;26.460;2023-07-28T02:49:10;96351.25;;;12.61;71.66
47556;BME280;33291;46.222;26.460;2023-07-28T02:51:35;96347.75;;;12.52;72.26
47556;BME280;33291;46.222;26.460;2023-07-28T02:54:02;96350.66;;;12.49;72.65
47556;BME280;33291;46.222;26.460;2023-07-28T02:56:28;96328.09;;;12.40;73.14
47556;BME280;33291;46.222;26.460;2023-07-28T02:58:54;96347.22;;;12.40;73.74
47556;BME280;33291;46.222;26.460;2023-07-28T03:01:20;96342.81;;;12.41;72.61
47556;BME280;33291;46.222;26.460;2023-07-28T03:03:46;96330.97;;;12.29;73.43
47556;BME280;33291;46.222;26.460;2023-07-28T03:06:12;96337.19;;;12.36;73.05
47556;BME280;33291;46.222;26.460;2023-07-28T03:08:38;96343.16;;;12.46;72.93
47556;BME280;33291;46.222;26.460;2023-07-28T03:11:03;96342.84;;;12.49;73.21
47556;BME280;33291;46.222;26.460;2023-07-28T03:13:29;96329.38;;;12.36;73.81
47556;BME280;33291;46.222;26.460;2023-07-28T03:15:54;96347.22;;;12.40;73.85
47556;BME280;33291;46.222;26.460;2023-07-28T03:18:20;96338.19;;;12.35;74.00
47556;BME280;33291;46.222;26.460;2023-07-28T03:20:46;96337.47;;;12.24;74.03
47556;BME280;33291;46.222;26.460;2023-07-28T03:23:12;96334.66;;;12.18;73.96
47556;BME280;33291;46.222;26.460;2023-07-28T03:25:37;96328.56;;;12.09;73.92
47556;BME280;33291;46.222;26.460;2023-07-28T03:28:03;96346.28;;;12.05;73.85
47556;BME280;33291;46.222;26.460;2023-07-28T03:30:28;96339.53;;;11.95;74.31
47556;BME280;33291;46.222;26.460;2023-07-28T03:32:54;96346.81;;;11.91;74.68
47556;BME280;33291;46.222;26.460;2023-07-28T03:35:19;96350.25;;;11.91;75.16
47556;BME280;33291;46.222;26.460;2023-07-28T03:37:45;96342.06;;;11.86;75.45
47556;BME280;33291;46.222;26.460;2023-07-28T03:40:10;96354.94;;;11.88;76.20
47556;BME280;33291;46.222;26.460;2023-07-28T03:42:36;96337.59;;;11.79;76.55
47556;BME280;33291;46.222;26.460;2023-07-28T03:45:01;96356.91;;;11.86;76.78
47556;BME280;33291;46.222;26.460;2023-07-28T03:47:27;96360.03;;;11.89;76.87
47556;BME280;33291;46.222;26.460;2023-07-28T03:49:52;96341.69;;;11.81;77.03
47556;BME280;33291;46.222;26.460;2023-07-28T03:52:18;96356.44;;;11.90;77.29
47556;BME280;33291;46.222;26.460;2023-07-28T03:54:43;96354.53;;;11.93;77.25
47556;BME280;33291;46.222;26.460;2023-07-28T03:57:09;96349.00;;;11.96;77.24
47556;BME280;33291;46.222;26.460;2023-07-28T03:59:35;96337.66;;;11.87;78.03
47556;BME280;33291;46.222;26.460;2023-07-28T04:02:00;96343.13;;;11.94;78.18
47556;BME280;33291;46.222;26.460;2023-07-28T04:04:26;96333.78;;;11.91;78.77
47556;BME280;33291;46.222;26.460;2023-07-28T04:06:51;96340.88;;;11.99;78.37
47556;BME280;33291;46.222;26.460;2023-07-28T04:09:19;96351.81;;;12.02;78.58
47556;BME280;33291;46.222;26.460;2023-07-28T04:11:45;96343.53;;;12.07;78.43
47556;BME280;33291;46.222;26.460;2023-07-28T04:14:10;96348.47;;;12.10;78.36
47556;BME280;33291;46.222;26.460;2023-07-28T04:16:36;96340.13;;;12.06;78.27
47556;BME280;33291;46.222;26.460;2023-07-28T04:19:01;96347.78;;;12.08;78.54
47556;BME280;33291;46.222;26.460;2023-07-28T04:21:27;96356.06;;;12.21;78.35
47556;BME280;33291;46.222;26.460;2023-07-28T04:23:53;96348.22;;;12.21;78.63
47556;BME280;33291;46.222;26.460;2023-07-28T04:26:18;96348.56;;;12.26;78.48
47556;BME280;33291;46.222;26.460;2023-07-28T04:28:44;96337.31;;;12.26;78.42
47556;BME280;33291;46.222;26.460;2023-07-28T04:31:10;96335.44;;;12.36;77.98
47556;BME280;33291;46.222;26.460;2023-07-28T04:33:36;96346.94;;;12.52;77.72
47556;BME280;33291;46.222;26.460;2023-07-28T04:36:04;96341.91;;;12.58;77.75
47556;BME280;33291;46.222;26.460;2023-07-28T04:38:29;96335.56;;;12.61;77.60
47556;BME280;33291;46.222;26.460;2023-07-28T04:40:55;96340.69;;;12.71;77.08
47556;BME280;33291;46.222;26.460;2023-07-28T04:43:20;96328.06;;;12.66;76.39
47556;BME280;33291;46.222;26.460;2023-07-28T04:45:46;96332.88;;;12.79;75.73
47556;BME280;33291;46.222;26.460;2023-07-28T04:48:11;96348.63;;;12.95;75.56
47556;BME280;33291;46.222;26.460;2023-07-28T04:50:37;96348.31;;;12.98;75.45
47556;BME280;33291;46.222;26.460;2023-07-28T04:53:02;96351.47;;;13.10;75.61
47556;BME280;33291;46.222;26.460;2023-07-28T04:55:28;96345.75;;;13.15;75.44
47556;BME280;33291;46.222;26.460;2023-07-28T04:57:54;96349.72;;;13.27;75.68
47556;BME280;33291;46.222;26.460;2023-07-28T05:00:20;96348.16;;;13.35;75.62
47556;BME280;33291;46.222;26.460;2023-07-28T05:02:45;96347.50;;;13.41;75.90
47556;BME280;33291;46.222;26.460;2023-07-28T05:05:11;96355.69;;;13.54;76.10
47556;BME280;33291;46.222;26.460;2023-07-28T05:07:36;96352.09;;;13.63;76.08
47556;BME280;33291;46.222;26.460;2023-07-28T05:10:02;96344.94;;;13.65;75.53
47556;BME280;33291;46.222;26.460;2023-07-28T05:12:28;96350.84;;;13.76;75.38
47556;BME280;33291;46.222;26.460;2023-07-28T05:14:53;96339.19;;;13.78;74.92
47556;BME280;33291;46.222;26.460;2023-07-28T05:17:19;96347.91;;;13.95;74.82
47556;BME280;33291;46.222;26.460;2023-07-28T05:19:44;96346.59;;;14.08;74.42
47556;BME280;33291;46.222;26.460;2023-07-28T05:22:09;96342.66;;;14.20;74.30
47556;BME280;33291;46.222;26.460;2023-07-28T05:24:35;96329.53;;;14.28;73.99
47556;BME280;33291;46.222;26.460;2023-07-28T05:27:01;96342.94;;;14.42;74.07
47556;BME280;33291;46.222;26.460;2023-07-28T05:29:26;96339.78;;;14.54;73.70
47556;BME280;33291;46.222;26.460;2023-07-28T05:31:52;96323.91;;;14.64;73.05
47556;BME280;33291;46.222;26.460;2023-07-28T05:34:17;96327.59;;;14.86;72.06
47556;BME280;33291;46.222;26.460;2023-07-28T05:36:43;96322.63;;;15.00;71.66
47556;BME280;33291;46.222;26.460;2023-07-28T05:39:09;96332.06;;;15.17;71.63
47556;BME280;33291;46.222;26.460;2023-07-28T05:41:35;96323.63;;;15.30;71.29
47556;BME280;33291;46.222;26.460;2023-07-28T05:44:01;96327.13;;;15.45;70.10
47556;BME280;33291;46.222;26.460;2023-07-28T05:46:26;96320.19;;;15.61;69.45
47556;BME280;33291;46.222;26.460;2023-07-28T05:48:57;96329.28;;;15.73;68.52
47556;BME280;33291;46.222;26.460;2023-07-28T05:51:22;96321.69;;;15.78;68.14
47556;BME280;33291;46.222;26.460;2023-07-28T05:53:49;96306.94;;;15.77;68.62
47556;BME280;33291;46.222;26.460;2023-07-28T05:56:14;96318.06;;;16.03;67.20
47556;BME280;33291;46.222;26.460;2023-07-28T05:58:40;96323.34;;;16.17;66.37
47556;BME280;33291;46.222;26.460;2023-07-28T06:01:05;96332.09;;;16.33;65.35
47556;BME280;33291;46.222;26.460;2023-07-28T06:03:31;96323.31;;;16.56;64.25
47556;BME280;33291;46.222;26.460;2023-07-28T06:05:57;96326.13;;;16.69;63.50
47556;BME280;33291;46.222;26.460;2023-07-28T06:08:22;96318.63;;;16.81;62.42
47556;BME280;33291;46.222;26.460;2023-07-28T06:10:48;96303.75;;;16.88;60.32
47556;BME280;33291;46.222;26.460;2023-07-28T06:13:13;96310.50;;;17.12;53.92
47556;BME280;33291;46.222;26.460;2023-07-28T06:15:40;96318.19;;;17.29;54.08
47556;BME280;33291;46.222;26.460;2023-07-28T06:18:05;96316.47;;;17.36;52.87
47556;BME280;33291;46.222;26.460;2023-07-28T06:20:31;96294.03;;;17.40;51.77
47556;BME280;33291;46.222;26.460;2023-07-28T06:22:56;96323.63;;;17.64;51.19
47556;BME280;33291;46.222;26.460;2023-07-28T06:25:22;96315.34;;;17.67;51.13
47556;BME280;33291;46.222;26.460;2023-07-28T06:27:47;96327.91;;;17.86;50.02
47556;BME280;33291;46.222;26.460;2023-07-28T06:30:13;96331.28;;;18.02;48.66
47556;BME280;33291;46.222;26.460;2023-07-28T06:32:38;96317.75;;;18.05;49.16
47556;BME280;33291;46.222;26.460;2023-07-28T06:35:05;96313.78;;;18.16;48.40
47556;BME280;33291;46.222;26.460;2023-07-28T06:37:32;96303.03;;;18.17;48.63
47556;BME280;33291;46.222;26.460;2023-07-28T06:39:58;96317.75;;;18.33;48.59
47556;BME280;33291;46.222;26.460;2023-07-28T06:42:24;96313.16;;;18.42;47.59
47556;BME280;33291;46.222;26.460;2023-07-28T06:44:53;96306.88;;;18.43;48.59
47556;BME280;33291;46.222;26.460;2023-07-28T06:47:18;96308.72;;;18.49;49.12
47556;BME280;33291;46.222;26.460;2023-07-28T06:49:44;96321.00;;;18.63;47.02
47556;BME280;33291;46.222;26.460;2023-07-28T06:52:10;96312.09;;;18.64;47.37
47556;BME280;33291;46.222;26.460;2023-07-28T06:54:36;96310.91;;;18.74;47.53
47556;BME280;33291;46.222;26.460;2023-07-28T06:57:02;96303.28;;;18.86;48.04
47556;BME280;33291;46.222;26.460;2023-07-28T06:59:28;96309.84;;;18.96;46.76
47556;BME280;33291;46.222;26.460;2023-07-28T07:01:53;96299.50;;;19.02;46.58
47556;BME280;33291;46.222;26.460;2023-07-28T07:04:19;96299.31;;;19.10;45.75
47556;BME280;33291;46.222;26.460;2023-07-28T07:06:44;96299.97;;;19.12;45.47
47556;BME280;33291;46.222;26.460;2023-07-28T07:09:10;96311.13;;;19.21;46.02
47556;BME280;33291;46.222;26.460;2023-07-28T07:11:39;96313.22;;;19.39;44.80
47556;BME280;33291;46.222;26.460;2023-07-28T07:14:05;96307.16;;;19.45;44.39
47556;BME280;33291;46.222;26.460;2023-07-28T07:16:30;96311.63;;;19.51;44.98
47556;BME280;33291;46.222;26.460;2023-07-28T07:18:56;96313.69;;;19.62;43.85
47556;BME280;33291;46.222;26.460;2023-07-28T07:21:21;96316.75;;;19.66;44.34
47556;BME280;33291;46.222;26.460;2023-07-28T07:23:46;96314.13;;;19.73;43.43
47556;BME280;33291;46.222;26.460;2023-07-28T07:26:12;96310.72;;;19.79;44.06
47556;BME280;33291;46.222;26.460;2023-07-28T07:28:38;96313.38;;;19.92;42.58
47556;BME280;33291;46.222;26.460;2023-07-28T07:31:11;96334.13;;;19.95;42.69
47556;BME280;33291;46.222;26.460;2023-07-28T07:33:37;96319.47;;;19.99;42.59
47556;BME280;33291;46.222;26.460;2023-07-28T07:36:03;96310.09;;;20.10;42.11
47556;BME280;33291;46.222;26.460;2023-07-28T07:38:28;96300.38;;;20.11;42.47
47556;BME280;33291;46.222;26.460;2023-07-28T07:40:54;96325.38;;;20.15;41.89
47556;BME280;33291;46.222;26.460;2023-07-28T07:43:19;96311.13;;;20.16;42.16
47556;BME280;33291;46.222;26.460;2023-07-28T07:45:46;96318.06;;;20.17;42.05
47556;BME280;33291;46.222;26.460;2023-07-28T07:48:13;96324.16;;;20.24;42.46
47556;BME280;33291;46.222;26.460;2023-07-28T07:50:38;96304.81;;;20.30;42.06
47556;BME280;33291;46.222;26.460;2023-07-28T07:53:04;96326.59;;;20.32;41.23
47556;BME280;33291;46.222;26.460;2023-07-28T07:55:30;96325.56;;;20.33;41.34
47556;BME280;33291;46.222;26.460;2023-07-28T07:57:57;96315.59;;;20.35;40.39
47556;BME280;33291;46.222;26.460;2023-07-28T08:00:22;96316.59;;;20.34;40.70
47556;BME280;33291;46.222;26.460;2023-07-28T08:02:49;96322.28;;;20.45;40.54
47556;BME280;33291;46.222;26.460;2023-07-28T08:05:15;96322.72;;;20.48;40.66
47556;BME280;33291;46.222;26.460;2023-07-28T08:07:40;96331.22;;;20.57;41.25
47556;BME280;33291;46.222;26.460;2023-07-28T08:10:06;96308.84;;;20.59;40.26
47556;BME280;33291;46.222;26.460;2023-07-28T08:12:32;96330.00;;;20.59;40.82
47556;BME280;33291;46.222;26.460;2023-07-28T08:14:57;96343.44;;;20.65;41.42
47556;BME280;33291;46.222;26.460;2023-07-28T08:17:23;96328.59;;;20.64;41.03
47556;BME280;33291;46.222;26.460;2023-07-28T08:19:48;96324.72;;;20.66;41.30
47556;BME280;33291;46.222;26.460;2023-07-28T08:22:14;96337.53;;;20.69;41.08
47556;BME280;33291;46.222;26.460;2023-07-28T08:24:40;96336.94;;;20.67;42.08
47556;BME280;33291;46.222;26.460;2023-07-28T08:27:05;96336.75;;;20.62;43.68
47556;BME280;33291;46.222;26.460;2023-07-28T08:29:31;96329.22;;;20.59;43.97
47556;BME280;33291;46.222;26.460;2023-07-28T08:31:57;96327.16;;;20.61;42.99
47556;BME280;33291;46.222;26.460;2023-07-28T08:34:22;96336.53;;;20.64;42.85
47556;BME280;33291;46.222;26.460;2023-07-28T08:36:47;96325.34;;;20.68;42.20
47556;BME280;33291;46.222;26.460;2023-07-28T08:39:13;96329.81;;;20.74;43.80
47556;BME280;33291;46.222;26.460;2023-07-28T08:41:40;96320.66;;;20.77;43.99
47556;BME280;33291;46.222;26.460;2023-07-28T08:44:07;96343.00;;;20.94;44.73
47556;BME280;33291;46.222;26.460;2023-07-28T08:46:32;96340.56;;;20.93;43.98
47556;BME280;33291;46.222;26.460;2023-07-28T08:48:59;96331.41;;;20.96;44.74
47556;BME280;33291;46.222;26.460;2023-07-28T08:51:25;96314.03;;;21.06;44.89
47556;BME280;33291;46.222;26.460;2023-07-28T08:53:51;96320.75;;;21.09;44.62
47556;BME280;33291;46.222;26.460;2023-07-28T08:56:16;96321.75;;;21.15;45.35
47556;BME280;33291;46.222;26.460;2023-07-28T08:58:42;96313.16;;;21.19;45.02
47556;BME280;33291;46.222;26.460;2023-07-28T09:01:07;96316.44;;;21.15;44.53
47556;BME280;33291;46.222;26.460;2023-07-28T09:03:33;96335.56;;;21.23;44.91
47556;BME280;33291;46.222;26.460;2023-07-28T09:06:03;96333.75;;;21.17;44.71
47556;BME280;33291;46.222;26.460;2023-07-28T09:08:32;96335.03;;;21.01;46.42
47556;BME280;33291;46.222;26.460;2023-07-28T09:11:01;96329.59;;;20.83;45.14
47556;BME280;33291;46.222;26.460;2023-07-28T09:13:38;96334.03;;;20.96;46.66
47556;BME280;33291;46.222;26.460;2023-07-28T09:16:04;96327.66;;;21.10;45.63
47556;BME280;33291;46.222;26.460;2023-07-28T09:18:30;96317.66;;;21.19;44.10
47556;BME280;33291;46.222;26.460;2023-07-28T09:20:56;96305.78;;;21.28;44.01
47556;BME280;33291;46.222;26.460;2023-07-28T09:23:29;96311.81;;;21.48;41.71
47556;BME280;33291;46.222;26.460;2023-07-28T09:26:01;96308.56;;;21.53;40.97
47556;BME280;33291;46.222;26.460;2023-07-28T09:28:40;96314.22;;;21.57;39.82
47556;BME280;33291;46.222;26.460;2023-07-28T09:31:07;96315.47;;;21.47;38.76
47556;BME280;33291;46.222;26.460;2023-07-28T09:33:35;96302.44;;;21.53;38.93
47556;BME280;33291;46.222;26.460;2023-07-28T09:36:11;96295.09;;;21.55;39.68
47556;BME280;33291;46.222;26.460;2023-07-28T09:38:39;96302.78;;;21.63;39.39
47556;BME280;33291;46.222;26.460;2023-07-28T09:41:11;96298.28;;;21.63;38.92
47556;BME280;33291;46.222;26.460;2023-07-28T09:43:37;96291.19;;;21.57;38.36
47556;BME280;33291;46.222;26.460;2023-07-28T09:46:04;96308.16;;;21.50;39.55
47556;BME280;33291;46.222;26.460;2023-07-28T09:48:32;96294.91;;;21.43;39.67
47556;BME280;33291;46.222;26.460;2023-07-28T09:51:02;96293.69;;;21.52;39.58
47556;BME280;33291;46.222;26.460;2023-07-28T09:53:30;96285.84;;;21.64;40.43
47556;BME280;33291;46.222;26.460;2023-07-28T09:55:58;96284.91;;;21.83;39.80
47556;BME280;33291;46.222;26.460;2023-07-28T09:58:24;96278.91;;;21.95;39.70
47556;BME280;33291;46.222;26.460;2023-07-28T10:00:50;96280.09;;;21.99;38.62
47556;BME280;33291;46.222;26.460;2023-07-28T10:03:16;96297.72;;;22.12;38.46
47556;BME280;33291;46.222;26.460;2023-07-28T10:05:43;96286.09;;;22.13;37.56
47556;BME280;33291;46.222;26.460;2023-07-28T10:08:10;96278.38;;;22.11;38.64
47556;BME280;33291;46.222;26.460;2023-07-28T10:10:36;96275.59;;;22.25;37.36
47556;BME280;33291;46.222;26.460;2023-07-28T10:13:02;96277.41;;;22.31;37.04
47556;BME280;33291;46.222;26.460;2023-07-28T10:15:31;96284.41;;;22.44;37.62
47556;BME280;33291;46.222;26.460;2023-07-28T10:17:58;96279.94;;;22.44;36.71
47556;BME280;33291;46.222;26.460;2023-07-28T10:23:21;96278.59;;;22.35;36.34
47556;BME280;33291;46.222;26.460;2023-07-28T10:25:56;96274.09;;;22.29;35.86
47556;BME280;33291;46.222;26.460;2023-07-28T10:28:29;96277.56;;;22.36;36.40
47556;BME280;33291;46.222;26.460;2023-07-28T10:30:57;96278.16;;;22.38;36.07
47556;BME280;33291;46.222;26.460;2023-07-28T10:33:37;96309.06;;;22.51;36.98
47556;BME280;33291;46.222;26.460;2023-07-28T10:39:12;96269.34;;;22.63;35.11
47556;BME280;33291;46.222;26.460;2023-07-28T10:41:37;96282.75;;;22.68;34.90
47556;BME280;33291;46.222;26.460;2023-07-28T10:44:03;96274.91;;;22.54;34.83
47556;BME280;33291;46.222;26.460;2023-07-28T10:46:29;96280.22;;;22.54;35.15
47556;BME280;33291;46.222;26.460;2023-07-28T10:48:54;96263.28;;;22.56;35.30
47556;BME280;33291;46.222;26.460;2023-07-28T10:51:24;96259.72;;;22.62;35.29
47556;BME280;33291;46.222;26.460;2023-07-28T10:53:57;96283.72;;;22.74;34.63
47556;BME280;33291;46.222;26.460;2023-07-28T10:56:23;96264.69;;;22.77;34.63
47556;BME280;33291;46.222;26.460;2023-07-28T10:58:57;96248.66;;;22.83;34.63
47556;BME280;33291;46.222;26.460;2023-07-28T11:01:37;96264.97;;;22.87;34.96
47556;BME280;33291;46.222;26.460;2023-07-28T11:04:21;96255.16;;;22.87;34.41
47556;BME280;33291;46.222;26.460;2023-07-28T11:06:49;96266.97;;;22.92;34.79
47556;BME280;33291;46.222;26.460;2023-07-28T11:09:22;96245.28;;;22.95;34.89
47556;BME280;33291;46.222;26.460;2023-07-28T11:11:49;96253.69;;;22.92;35.05
47556;BME280;33291;46.222;26.460;2023-07-28T11:14:16;96261.50;;;23.05;33.94
47556;BME280;33291;46.222;26.460;2023-07-28T11:16:43;96267.25;;;23.02;34.04
47556;BME280;33291;46.222;26.460;2023-07-28T11:19:11;96235.59;;;23.00;34.90
47556;BME280;33291;46.222;26.460;2023-07-28T11:21:40;96237.41;;;23.18;35.21
47556;BME280;33291;46.222;26.460;2023-07-28T11:24:10;96234.09;;;23.23;35.65
47556;BME280;33291;46.222;26.460;2023-07-28T11:26:37;96235.31;;;23.39;33.55
47556;BME280;33291;46.222;26.460;2023-07-28T11:29:04;96234.00;;;23.30;33.96
47556;BME280;33291;46.222;26.460;2023-07-28T11:31:30;96240.34;;;23.29;34.06
47556;BME280;33291;46.222;26.460;2023-07-28T11:33:55;96218.28;;;23.28;34.26
47556;BME280;33291;46.222;26.460;2023-07-28T11:36:29;96220.16;;;23.28;33.85
47556;BME280;33291;46.222;26.460;2023-07-28T11:38:57;96223.16;;;23.31;34.52
47556;BME280;33291;46.222;26.460;2023-07-28T11:41:25;96222.25;;;23.37;33.40
47556;BME280;33291;46.222;26.460;2023-07-28T11:43:51;96244.09;;;23.39;33.61
47556;BME280;33291;46.222;26.460;2023-07-28T11:46:36;96217.28;;;23.41;35.17
47556;BME280;33291;46.222;26.460;2023-07-28T11:49:17;96222.28;;;23.49;33.43
47556;BME280;33291;46.222;26.460;2023-07-28T11:51:47;96216.38;;;23.47;33.32
47556;BME280;33291;46.222;26.460;2023-07-28T11:54:14;96230.03;;;23.51;33.35
47556;BME280;33291;46.222;26.460;2023-07-28T11:56:42;96201.34;;;23.41;33.49
47556;BME280;33291;46.222;26.460;2023-07-28T11:59:08;96209.91;;;23.43;33.18
47556;BME280;33291;46.222;26.460;2023-07-28T12:01:33;96195.56;;;23.44;34.27
47556;BME280;33291;46.222;26.460;2023-07-28T12:03:59;96198.34;;;23.49;33.71
47556;BME280;33291;46.222;26.460;2023-07-28T12:06:26;96197.22;;;23.57;33.65
47556;BME280;33291;46.222;26.460;2023-07-28T12:08:51;96193.97;;;23.67;34.05
47556;BME280;33291;46.222;26.460;2023-07-28T12:11:17;96190.16;;;23.74;33.47
47556;BME280;33291;46.222;26.460;2023-07-28T12:13:52;96183.72;;;23.70;33.46
47556;BME280;33291;46.222;26.460;2023-07-28T12:16:47;96205.38;;;23.86;34.16
47556;BME280;33291;46.222;26.460;2023-07-28T12:19:13;96197.00;;;23.82;33.69
47556;BME280;33291;46.222;26.460;2023-07-28T12:21:39;96195.50;;;23.74;33.26
47556;BME280;33291;46.222;26.460;2023-07-28T12:24:04;96198.38;;;23.73;34.18
47556;BME280;33291;46.222;26.460;2023-07-28T12:26:30;96184.28;;;23.72;33.57
47556;BME280;33291;46.222;26.460;2023-07-28T12:28:55;96188.59;;;23.85;33.93
47556;BME280;33291;46.222;26.460;2023-07-28T12:31:20;96187.78;;;23.85;33.92
47556;BME280;33291;46.222;26.460;2023-07-28T12:33:47;96167.75;;;23.82;34.23
47556;BME280;33291;46.222;26.460;2023-07-28T12:36:12;96178.78;;;23.98;34.21
47556;BME280;33291;46.222;26.460;2023-07-28T12:38:38;96181.66;;;24.08;34.53
47556;BME280;33291;46.222;26.460;2023-07-28T12:41:03;96165.34;;;24.16;33.86
47556;BME280;33291;46.222;26.460;2023-07-28T12:43:28;96180.25;;;24.17;33.05
47556;BME280;33291;46.222;26.460;2023-07-28T12:45:54;96154.25;;;24.07;32.81
47556;BME280;33291;46.222;26.460;2023-07-28T12:48:19;96172.88;;;24.07;32.93
47556;BME280;33291;46.222;26.460;2023-07-28T12:50:45;96179.81;;;24.08;32.95
47556;BME280;33291;46.222;26.460;2023-07-28T12:53:11;96152.84;;;24.05;33.07
47556;BME280;33291;46.222;26.460;2023-07-28T12:55:37;96172.53;;;24.04;33.20
47556;BME280;33291;46.222;26.460;2023-07-28T12:58:02;96175.19;;;24.04;32.82